createdAt,value
2023-05-03T00:03:10.007Z,2.10
2023-05-03T00:08:15.615Z,1.73
2023-05-03T00:13:24.479Z,1.73
2023-05-03T00:18:31.076Z,2.00
2023-05-03T00:23:36.235Z,1.13
2023-05-03T00:28:45.814Z,1.65
2023-05-03T00:33:51.105Z,2.33
2023-05-03T00:38:56.843Z,1.77
2023-05-03T00:44:04.923Z,0.93
2023-05-03T00:49:10.281Z,1.17
2023-05-03T00:54:15.733Z,2.08
2023-05-03T00:59:23.945Z,1.73
2023-05-03T01:04:29.347Z,1.40
2023-05-03T01:09:39.921Z,1.50
2023-05-03T01:14:52.013Z,1.90
2023-05-03T01:19:59.556Z,1.70
2023-05-03T01:30:15.724Z,1.67
2023-05-03T01:35:32.952Z,1.55
2023-05-03T01:40:45.924Z,1.15
2023-05-03T01:45:51.459Z,1.70
2023-05-03T01:50:56.633Z,1.80
2023-05-03T01:56:04.571Z,1.98
2023-05-03T02:01:10.103Z,1.95
2023-05-03T02:06:15.851Z,1.20
2023-05-03T02:11:23.633Z,1.98
2023-05-03T02:16:29.534Z,2.38
2023-05-03T02:21:34.684Z,2.88
2023-05-03T02:26:42.547Z,2.83
2023-05-03T02:31:47.847Z,2.88
2023-05-03T02:36:53.848Z,3.15
2023-05-03T02:42:02.795Z,3.50
2023-05-03T02:47:08.061Z,2.42
2023-05-03T02:52:13.203Z,2.03
2023-05-03T02:57:20.944Z,2.38
2023-05-03T03:07:31.911Z,2.22
2023-05-03T03:12:39.964Z,1.25
2023-05-03T03:17:45.654Z,2.05
2023-05-03T03:22:51.516Z,1.85
2023-05-03T03:27:59.399Z,1.67
2023-05-03T03:33:04.853Z,1.92
2023-05-03T03:38:10.315Z,2.47
2023-05-03T03:43:18.179Z,1.77
2023-05-03T03:48:23.449Z,1.85
2023-05-03T03:53:29.117Z,2.70
2023-05-03T03:58:37.050Z,3.25
2023-05-03T04:03:42.232Z,2.35
2023-05-03T04:08:47.426Z,1.90
2023-05-03T04:13:58.020Z,2.13
2023-05-03T04:19:04.215Z,1.77
2023-05-03T04:24:14.350Z,2.75
2023-05-03T04:29:22.846Z,2.70
2023-05-03T04:34:28.181Z,2.28
2023-05-03T04:39:33.428Z,3.10
2023-05-03T04:44:41.226Z,2.97
2023-05-03T04:49:47.159Z,2.95
2023-05-03T04:54:52.285Z,2.03
2023-05-03T05:00:01.753Z,2.33
2023-05-03T05:05:07.503Z,2.17
2023-05-03T05:10:15.015Z,2.22
2023-05-03T05:15:22.988Z,2.55
2023-05-03T05:20:28.536Z,2.25
2023-05-03T05:25:34.070Z,1.90
2023-05-03T05:30:41.957Z,2.33
2023-05-03T05:35:48.617Z,2.75
2023-05-03T05:40:53.805Z,2.33
2023-05-03T05:46:01.821Z,2.22
2023-05-03T05:51:07.716Z,2.75
2023-05-03T05:56:12.946Z,2.28
2023-05-03T06:01:20.724Z,2.97
2023-05-03T06:06:26.125Z,2.60
2023-05-03T06:11:31.551Z,2.42
2023-05-03T06:16:39.748Z,2.20
2023-05-03T06:21:46.706Z,2.72
2023-05-03T06:26:52.083Z,2.03
2023-05-03T06:31:59.950Z,2.17
2023-05-03T06:37:05.432Z,2.10
2023-05-03T06:42:12.097Z,2.03
2023-05-03T06:47:21.123Z,2.10
2023-05-03T06:52:26.345Z,2.00
2023-05-03T06:57:31.763Z,2.30
2023-05-03T07:02:40.502Z,2.45
2023-05-03T07:07:46.924Z,2.25
2023-05-03T07:12:55.612Z,2.10
2023-05-03T07:18:04.428Z,1.92
2023-05-03T07:23:12.943Z,2.10
2023-05-03T07:28:18.640Z,1.42
2023-05-03T07:33:29.186Z,2.30
2023-05-03T07:38:36.573Z,0.98
2023-05-03T07:43:42.677Z,2.08
2023-05-03T07:48:50.730Z,2.40
2023-05-03T07:53:56.886Z,2.15
2023-05-03T07:59:10.148Z,1.83
2023-05-03T08:04:20.924Z,2.22
2023-05-03T08:09:28.208Z,2.50
2023-05-03T08:14:34.695Z,1.77
2023-05-03T08:19:43.255Z,1.33
2023-05-03T08:24:49.231Z,2.47
2023-05-03T08:29:56.493Z,2.28
2023-05-03T08:40:17.468Z,1.80
2023-05-03T08:45:23.445Z,2.25
2023-05-03T08:50:31.365Z,1.85
2023-05-03T08:55:37.284Z,1.90
2023-05-03T09:00:47.824Z,2.15
2023-05-03T09:05:56.464Z,1.77
2023-05-03T09:11:02.918Z,1.80
2023-05-03T09:16:09.322Z,2.53
2023-05-03T09:21:23.326Z,1.55
2023-05-03T09:26:35.905Z,1.70
2023-05-03T09:32:03.158Z,1.98
2023-05-03T09:37:15.637Z,1.70
2023-05-03T09:42:22.850Z,4.13
2023-05-03T09:47:32.174Z,1.55
2023-05-03T09:52:41.620Z,1.48
2023-05-03T09:57:51.993Z,2.08
2023-05-03T10:02:59.157Z,1.92
2023-05-03T10:08:08.845Z,1.60
2023-05-03T10:13:15.030Z,1.67
2023-05-03T10:18:22.066Z,2.08
2023-05-03T10:23:31.534Z,1.35
2023-05-03T10:28:37.583Z,1.85
2023-05-03T10:33:44.182Z,1.60
2023-05-03T10:38:52.634Z,1.77
2023-05-03T10:43:59.311Z,1.20
2023-05-03T10:49:22.358Z,1.60
2023-05-03T10:54:32.966Z,1.23
2023-05-03T10:59:52.497Z,1.63
2023-05-03T11:10:20.451Z,1.15
2023-05-03T11:15:26.662Z,1.70
2023-05-03T11:20:33.029Z,1.08
2023-05-03T11:25:41.572Z,1.45
2023-05-03T11:30:47.519Z,1.35
2023-05-03T11:35:54.689Z,2.13
2023-05-03T11:41:03.729Z,2.03
2023-05-03T11:46:10.063Z,1.52
2023-05-03T11:51:18.088Z,2.00
2023-05-03T11:56:27.179Z,1.95
2023-05-03T12:01:34.282Z,1.42
2023-05-03T12:06:42.440Z,1.63
2023-05-03T12:11:55.222Z,2.08
2023-05-03T12:17:02.236Z,3.83
2023-05-03T12:22:22.466Z,2.92
2023-05-03T12:27:32.868Z,1.88
2023-05-03T12:32:44.234Z,2.17
2023-05-03T12:43:03.584Z,2.05
2023-05-03T12:48:10.298Z,1.63
2023-05-03T12:58:52.755Z,1.30
2023-05-03T13:04:08.910Z,1.77
2023-05-03T13:09:24.797Z,2.78
2023-05-03T13:14:46.361Z,2.65
2023-05-03T13:19:53.714Z,2.05
2023-05-03T13:24:59.644Z,2.03
2023-05-03T13:30:10.394Z,1.88
2023-05-03T13:35:17.936Z,2.42
2023-05-03T13:40:26.540Z,2.17
2023-05-03T13:45:35.347Z,2.28
2023-05-03T13:50:41.271Z,2.13
2023-05-03T13:55:47.553Z,1.10
2023-05-03T14:00:56.190Z,2.13
2023-05-03T14:06:07.688Z,2.30
2023-05-03T14:11:21.584Z,1.92
2023-05-03T14:16:40.662Z,4.35
2023-05-03T14:21:50.823Z,1.75
2023-05-03T14:26:58.257Z,1.92
2023-05-03T14:32:09.735Z,2.47
2023-05-03T14:37:17.692Z,2.25
2023-05-03T14:42:23.752Z,2.40
2023-05-03T14:47:32.402Z,3.92
2023-05-03T14:52:39.971Z,2.58
2023-05-03T14:57:46.877Z,1.98
2023-05-03T15:02:57.956Z,1.90
2023-05-03T15:08:05.858Z,2.78
2023-05-03T15:13:12.472Z,2.45
2023-05-03T15:18:22.193Z,2.25
2023-05-03T15:23:28.824Z,2.63
2023-05-03T15:28:34.927Z,2.63
2023-05-03T15:33:50.861Z,2.85
2023-05-03T15:38:56.918Z,9.82
2023-05-03T15:44:06.509Z,1.50
2023-05-03T15:49:16.172Z,2.08
2023-05-03T15:54:25.964Z,2.83
2023-05-03T15:59:35.305Z,9.35
2023-05-03T16:04:44.979Z,3.28
2023-05-03T16:09:51.417Z,3.25
2023-05-03T16:14:58.032Z,2.38
2023-05-03T16:20:09.074Z,2.05
2023-05-03T16:25:16.197Z,1.77
2023-05-03T16:35:37.320Z,1.98
2023-05-03T16:40:43.657Z,1.35
2023-05-03T16:45:49.754Z,1.90
2023-05-03T16:50:59.347Z,2.55
2023-05-03T16:56:10.493Z,2.42
2023-05-03T17:01:19.234Z,2.97
2023-05-03T17:06:28.574Z,4.28
2023-05-03T17:11:35.045Z,15.23
2023-05-03T17:16:47.467Z,20.85
2023-05-03T17:21:56.226Z,10.13
2023-05-03T17:27:02.662Z,6.90
2023-05-03T17:32:10.524Z,6.88
2023-05-03T17:37:23.502Z,7.07
2023-05-03T17:42:29.463Z,3.58
2023-05-03T17:47:35.719Z,3.33
2023-05-03T17:52:44.677Z,3.15
2023-05-03T17:57:51.009Z,2.65
2023-05-03T18:02:58.573Z,1.85
2023-05-03T18:08:13.665Z,2.85
2023-05-03T18:13:20.149Z,3.25
2023-05-03T18:18:26.973Z,2.97
2023-05-03T18:23:37.751Z,3.05
2023-05-03T18:28:46.286Z,2.40
2023-05-03T18:33:52.785Z,2.50
2023-05-03T18:39:01.829Z,3.17
2023-05-03T18:44:09.617Z,2.92
2023-05-03T18:49:19.765Z,4.20
2023-05-03T18:54:34.627Z,7.20
2023-05-03T18:59:52.571Z,8.30
2023-05-03T19:05:12.774Z,5.88
2023-05-03T19:10:30.727Z,6.38
2023-05-03T19:15:37.819Z,5.40
2023-05-03T19:20:44.128Z,4.38
2023-05-03T19:25:53.301Z,4.45
2023-05-03T19:31:02.949Z,4.50
2023-05-03T19:36:11.744Z,5.78
2023-05-03T19:41:32.808Z,5.40
2023-05-03T19:46:43.033Z,3.10
2023-05-03T19:51:50.338Z,3.53
2023-05-03T19:56:59.292Z,3.20
2023-05-03T20:02:05.876Z,2.83
2023-05-03T20:07:18.824Z,3.47
2023-05-03T20:12:28.378Z,3.33
2023-05-03T20:17:40.140Z,3.78
2023-05-03T20:22:52.925Z,4.13
2023-05-03T20:28:03.265Z,3.58
2023-05-03T20:33:09.909Z,4.70
2023-05-03T20:38:18.243Z,4.00
2023-05-03T20:43:27.191Z,3.60
2023-05-03T20:48:38.268Z,4.22
2023-05-03T20:53:44.553Z,4.45
2023-05-03T20:58:54.124Z,4.15
2023-05-03T21:04:04.498Z,4.13
2023-05-03T21:09:14.284Z,4.25
2023-05-03T21:14:24.007Z,4.18
2023-05-03T21:19:30.716Z,3.80
2023-05-03T21:24:36.877Z,3.40
2023-05-03T21:29:49.155Z,4.10
2023-05-03T21:34:57.882Z,3.90
2023-05-03T21:40:03.962Z,4.45
2023-05-03T21:45:17.014Z,3.70
2023-05-03T21:50:24.712Z,4.45
2023-05-03T21:55:31.468Z,4.10
2023-05-03T22:00:41.725Z,4.45
2023-05-03T22:05:54.210Z,4.30
2023-05-03T22:11:01.913Z,4.10
2023-05-03T22:16:12.686Z,2.75
2023-05-03T22:21:19.449Z,3.83
2023-05-03T22:26:24.887Z,3.95
2023-05-03T22:31:33.744Z,3.90
2023-05-03T22:36:39.885Z,3.30
2023-05-03T22:41:46.451Z,3.40
2023-05-03T22:46:55.913Z,3.65
2023-05-03T22:52:02.637Z,3.40
2023-05-03T22:57:10.144Z,3.20
2023-05-03T23:02:17.893Z,3.33
2023-05-03T23:07:23.795Z,3.35
2023-05-03T23:12:31.848Z,3.15
2023-05-03T23:17:44.385Z,3.28
2023-05-03T23:22:49.850Z,2.88
2023-05-03T23:27:54.926Z,3.47
2023-05-03T23:33:06.131Z,3.30
2023-05-03T23:38:11.833Z,2.88
2023-05-03T23:43:17.215Z,3.08
2023-05-03T23:48:25.030Z,2.40
2023-05-03T23:53:30.662Z,3.33
2023-05-03T23:58:36.167Z,3.03
